sensor_id;sensor_type;location;lat;lon;timestamp;pressure;altitude;pressure_sealevel;temperature;humidity
78841;BME280;68379;47.190;27.558;2023-07-30T00:02:06;99347.32;;;22.06;53.69
78841;BME280;68379;47.190;27.558;2023-07-30T00:04:35;99352.97;;;21.98;53.37
78841;BME280;68379;47.190;27.558;2023-07-30T00:07:05;99355.84;;;21.92;53.54
78841;BME280;68379;47.190;27.558;2023-07-30T00:09:34;99353.63;;;21.87;53.90
78841;BME280;68379;47.190;27.558;2023-07-30T00:12:04;99354.08;;;21.80;53.99
78841;BME280;68379;47.190;27.558;2023-07-30T00:14:33;99351.67;;;21.75;53.86
78841;BME280;68379;47.190;27.558;2023-07-30T00:17:03;99351.70;;;21.71;54.18
78841;BME280;68379;47.190;27.558;2023-07-30T00:19:32;99353.73;;;21.67;54.00
78841;BME280;68379;47.190;27.558;2023-07-30T00:22:01;99353.70;;;21.63;54.05
78841;BME280;68379;47.190;27.558;2023-07-30T00:24:30;99356.23;;;21.59;54.01
78841;BME280;68379;47.190;27.558;2023-07-30T00:26:59;99351.48;;;21.56;54.29
78841;BME280;68379;47.190;27.558;2023-07-30T00:29:28;99347.57;;;21.52;54.44
78841;BME280;68379;47.190;27.558;2023-07-30T00:31:57;99350.19;;;21.47;55.04
78841;BME280;68379;47.190;27.558;2023-07-30T00:34:28;99352.20;;;21.43;54.96
78841;BME280;68379;47.190;27.558;2023-07-30T00:36:57;99353.52;;;21.36;54.79
78841;BME280;68379;47.190;27.558;2023-07-30T00:39:26;99354.20;;;21.27;55.13
78841;BME280;68379;47.190;27.558;2023-07-30T00:41:55;99352.64;;;21.18;57.75
78841;BME280;68379;47.190;27.558;2023-07-30T00:44:24;99354.61;;;21.08;60.46
78841;BME280;68379;47.190;27.558;2023-07-30T00:46:53;99357.06;;;20.97;59.68
78841;BME280;68379;47.190;27.558;2023-07-30T00:49:23;99356.36;;;20.88;59.53
78841;BME280;68379;47.190;27.558;2023-07-30T00:51:51;99351.10;;;20.81;60.03
78841;BME280;68379;47.190;27.558;2023-07-30T00:54:21;99344.52;;;20.74;61.99
78841;BME280;68379;47.190;27.558;2023-07-30T00:56:52;99341.94;;;20.63;64.77
78841;BME280;68379;47.190;27.558;2023-07-30T00:59:22;99341.94;;;20.53;63.82
78841;BME280;68379;47.190;27.558;2023-07-30T01:01:52;99341.35;;;20.45;62.54
78841;BME280;68379;47.190;27.558;2023-07-30T01:04:21;99341.92;;;20.41;61.59
78841;BME280;68379;47.190;27.558;2023-07-30T01:06:50;99344.80;;;20.41;61.75
78841;BME280;68379;47.190;27.558;2023-07-30T01:09:19;99346.78;;;20.39;61.64
78841;BME280;68379;47.190;27.558;2023-07-30T01:11:49;99344.67;;;20.34;61.47
78841;BME280;68379;47.190;27.558;2023-07-30T01:14:19;99348.55;;;20.32;61.40
78841;BME280;68379;47.190;27.558;2023-07-30T01:16:49;99347.74;;;20.31;61.22
78841;BME280;68379;47.190;27.558;2023-07-30T01:19:18;99348.91;;;20.32;61.06
78841;BME280;68379;47.190;27.558;2023-07-30T01:21:47;99349.11;;;20.34;60.37
78841;BME280;68379;47.190;27.558;2023-07-30T01:24:16;99353.69;;;20.38;59.93
78841;BME280;68379;47.190;27.558;2023-07-30T01:26:46;99357.39;;;20.41;60.26
78841;BME280;68379;47.190;27.558;2023-07-30T01:29:22;99356.25;;;20.39;60.94
78841;BME280;68379;47.190;27.558;2023-07-30T01:31:56;99358.25;;;20.37;60.54
78841;BME280;68379;47.190;27.558;2023-07-30T01:34:28;99357.42;;;20.36;60.79
78841;BME280;68379;47.190;27.558;2023-07-30T01:36:58;99360.84;;;20.33;61.00
78841;BME280;68379;47.190;27.558;2023-07-30T01:39:28;99356.92;;;20.33;61.21
78841;BME280;68379;47.190;27.558;2023-07-30T01:41:58;99357.50;;;20.33;61.11
78841;BME280;68379;47.190;27.558;2023-07-30T01:44:26;99352.02;;;20.34;61.43
78841;BME280;68379;47.190;27.558;2023-07-30T01:46:55;99349.36;;;20.33;62.33
78841;BME280;68379;47.190;27.558;2023-07-30T01:49:24;99349.42;;;20.31;62.72
78841;BME280;68379;47.190;27.558;2023-07-30T01:51:54;99349.55;;;20.27;63.06
78841;BME280;68379;47.190;27.558;2023-07-30T01:54:26;99348.48;;;20.23;63.11
78841;BME280;68379;47.190;27.558;2023-07-30T01:56:55;99352.52;;;20.20;62.28
78841;BME280;68379;47.190;27.558;2023-07-30T01:59:27;99353.80;;;20.20;61.59
78841;BME280;68379;47.190;27.558;2023-07-30T03:05:12;99379.36;;;19.77;63.60
78841;BME280;68379;47.190;27.558;2023-07-30T03:07:41;99376.91;;;19.78;64.04
78841;BME280;68379;47.190;27.558;2023-07-30T03:10:14;99377.37;;;19.79;63.95
78841;BME280;68379;47.190;27.558;2023-07-30T03:12:43;99377.09;;;19.83;64.09
78841;BME280;68379;47.190;27.558;2023-07-30T03:15:11;99377.18;;;19.85;64.63
78841;BME280;68379;47.190;27.558;2023-07-30T03:17:40;99375.91;;;19.88;64.32
78841;BME280;68379;47.190;27.558;2023-07-30T03:20:10;99376.42;;;19.90;64.63
78841;BME280;68379;47.190;27.558;2023-07-30T03:22:39;99371.56;;;19.91;64.47
78841;BME280;68379;47.190;27.558;2023-07-30T03:25:09;99369.02;;;19.93;64.20
78841;BME280;68379;47.190;27.558;2023-07-30T03:27:38;99369.76;;;19.97;64.16
78841;BME280;68379;47.190;27.558;2023-07-30T03:30:08;99370.16;;;19.97;64.27
78841;BME280;68379;47.190;27.558;2023-07-30T03:32:37;99371.48;;;19.98;64.19
78841;BME280;68379;47.190;27.558;2023-07-30T03:35:08;99376.47;;;20.01;64.01
78841;BME280;68379;47.190;27.558;2023-07-30T03:37:37;99383.45;;;20.03;64.53
78841;BME280;68379;47.190;27.558;2023-07-30T03:40:08;99382.16;;;20.01;66.12
78841;BME280;68379;47.190;27.558;2023-07-30T03:42:37;99374.43;;;19.97;66.39
78841;BME280;68379;47.190;27.558;2023-07-30T03:45:08;99373.83;;;19.91;66.45
78841;BME280;68379;47.190;27.558;2023-07-30T03:47:37;99374.66;;;19.86;66.81
78841;BME280;68379;47.190;27.558;2023-07-30T03:50:07;99375.61;;;19.83;67.30
78841;BME280;68379;47.190;27.558;2023-07-30T03:52:36;99372.92;;;19.81;68.07
78841;BME280;68379;47.190;27.558;2023-07-30T03:55:06;99378.63;;;19.79;67.82
78841;BME280;68379;47.190;27.558;2023-07-30T03:57:35;99378.69;;;19.79;67.41
78841;BME280;68379;47.190;27.558;2023-07-30T04:00:07;99380.02;;;19.82;67.00
78841;BME280;68379;47.190;27.558;2023-07-30T04:02:36;99377.11;;;19.86;66.75
78841;BME280;68379;47.190;27.558;2023-07-30T04:05:06;99378.21;;;19.90;66.31
78841;BME280;68379;47.190;27.558;2023-07-30T04:07:35;99381.09;;;19.97;66.33
78841;BME280;68379;47.190;27.558;2023-07-30T04:10:05;99384.55;;;20.04;65.92
78841;BME280;68379;47.190;27.558;2023-07-30T04:12:34;99388.55;;;20.14;65.47
78841;BME280;68379;47.190;27.558;2023-07-30T04:15:05;99390.66;;;20.23;65.21
78841;BME280;68379;47.190;27.558;2023-07-30T04:17:34;99397.66;;;20.33;64.55
78841;BME280;68379;47.190;27.558;2023-07-30T04:20:06;99399.48;;;20.45;64.48
78841;BME280;68379;47.190;27.558;2023-07-30T04:22:36;99403.13;;;20.59;64.28
78841;BME280;68379;47.190;27.558;2023-07-30T04:25:06;99402.39;;;20.71;63.68
78841;BME280;68379;47.190;27.558;2023-07-30T04:27:35;99403.49;;;20.84;63.58
78841;BME280;68379;47.190;27.558;2023-07-30T04:30:06;99405.79;;;20.94;62.95
78841;BME280;68379;47.190;27.558;2023-07-30T04:32:35;99402.83;;;21.01;62.09
78841;BME280;68379;47.190;27.558;2023-07-30T04:35:07;99404.23;;;21.11;61.85
78841;BME280;68379;47.190;27.558;2023-07-30T04:37:36;99399.29;;;21.16;61.38
78841;BME280;68379;47.190;27.558;2023-07-30T04:40:08;99399.79;;;21.23;61.33
78841;BME280;68379;47.190;27.558;2023-07-30T04:42:37;99399.92;;;21.35;61.07
78841;BME280;68379;47.190;27.558;2023-07-30T04:45:08;99401.46;;;21.50;60.64
78841;BME280;68379;47.190;27.558;2023-07-30T04:47:37;99405.91;;;21.65;60.37
78841;BME280;68379;47.190;27.558;2023-07-30T04:50:08;99399.79;;;21.78;59.88
78841;BME280;68379;47.190;27.558;2023-07-30T04:52:39;99394.95;;;21.93;59.73
78841;BME280;68379;47.190;27.558;2023-07-30T04:55:09;99397.05;;;22.09;59.23
78841;BME280;68379;47.190;27.558;2023-07-30T04:57:38;99401.74;;;22.23;58.45
78841;BME280;68379;47.190;27.558;2023-07-30T05:00:10;99408.23;;;22.34;58.94
78841;BME280;68379;47.190;27.558;2023-07-30T05:02:39;99418.64;;;22.43;58.88
78841;BME280;68379;47.190;27.558;2023-07-30T05:05:09;99417.67;;;22.56;58.81
78841;BME280;68379;47.190;27.558;2023-07-30T05:07:37;99419.10;;;22.61;58.37
78841;BME280;68379;47.190;27.558;2023-07-30T05:10:09;99415.27;;;22.64;58.50
78841;BME280;68379;47.190;27.558;2023-07-30T05:12:38;99411.69;;;22.63;58.61
78841;BME280;68379;47.190;27.558;2023-07-30T05:15:09;99407.30;;;22.62;58.61
78841;BME280;68379;47.190;27.558;2023-07-30T05:17:38;99403.39;;;22.60;58.88
78841;BME280;68379;47.190;27.558;2023-07-30T05:20:09;99399.83;;;22.63;58.78
78841;BME280;68379;47.190;27.558;2023-07-30T05:22:38;99401.58;;;22.72;58.19
78841;BME280;68379;47.190;27.558;2023-07-30T05:25:09;99399.23;;;22.83;58.37
78841;BME280;68379;47.190;27.558;2023-07-30T05:27:38;99393.85;;;22.96;58.06
78841;BME280;68379;47.190;27.558;2023-07-30T05:30:09;99394.65;;;23.04;57.21
78841;BME280;68379;47.190;27.558;2023-07-30T05:32:39;99399.52;;;23.13;57.37
78841;BME280;68379;47.190;27.558;2023-07-30T05:35:09;99403.91;;;23.21;57.07
78841;BME280;68379;47.190;27.558;2023-07-30T05:37:37;99400.02;;;23.30;57.25
78841;BME280;68379;47.190;27.558;2023-07-30T05:40:09;99393.53;;;23.42;56.88
78841;BME280;68379;47.190;27.558;2023-07-30T05:42:38;99392.05;;;23.54;56.58
78841;BME280;68379;47.190;27.558;2023-07-30T05:45:09;99393.86;;;23.60;55.64
78841;BME280;68379;47.190;27.558;2023-07-30T05:47:38;99397.33;;;23.69;55.66
78841;BME280;68379;47.190;27.558;2023-07-30T05:50:09;99396.31;;;23.78;56.03
78841;BME280;68379;47.190;27.558;2023-07-30T05:52:38;99393.30;;;23.81;55.80
78841;BME280;68379;47.190;27.558;2023-07-30T05:55:08;99386.13;;;23.91;55.04
78841;BME280;68379;47.190;27.558;2023-07-30T05:57:38;99383.27;;;24.01;54.54
78841;BME280;68379;47.190;27.558;2023-07-30T06:00:10;99383.78;;;24.08;54.81
78841;BME280;68379;47.190;27.558;2023-07-30T06:02:39;99383.52;;;24.11;54.56
78841;BME280;68379;47.190;27.558;2023-07-30T06:05:09;99382.92;;;24.19;54.44
78841;BME280;68379;47.190;27.558;2023-07-30T06:07:38;99375.73;;;24.27;53.78
78841;BME280;68379;47.190;27.558;2023-07-30T06:10:09;99375.84;;;24.38;54.21
78841;BME280;68379;47.190;27.558;2023-07-30T06:12:38;99372.77;;;24.48;53.91
78841;BME280;68379;47.190;27.558;2023-07-30T06:15:10;99372.73;;;24.61;53.78
78841;BME280;68379;47.190;27.558;2023-07-30T06:17:39;99376.21;;;24.72;53.40
78841;BME280;68379;47.190;27.558;2023-07-30T06:20:11;99376.66;;;24.82;52.42
78841;BME280;68379;47.190;27.558;2023-07-30T06:22:40;99379.41;;;24.92;52.79
78841;BME280;68379;47.190;27.558;2023-07-30T06:25:09;99382.25;;;24.99;52.73
78841;BME280;68379;47.190;27.558;2023-07-30T06:27:38;99386.23;;;25.09;51.74
78841;BME280;68379;47.190;27.558;2023-07-30T06:30:09;99383.92;;;25.21;51.62
78841;BME280;68379;47.190;27.558;2023-07-30T06:32:39;99386.53;;;25.35;51.81
78841;BME280;68379;47.190;27.558;2023-07-30T06:35:09;99386.15;;;25.52;51.91
78841;BME280;68379;47.190;27.558;2023-07-30T06:37:45;99384.64;;;25.64;52.10
78841;BME280;68379;47.190;27.558;2023-07-30T06:40:15;99388.30;;;25.77;51.04
78841;BME280;68379;47.190;27.558;2023-07-30T06:42:44;99385.34;;;25.88;50.24
78841;BME280;68379;47.190;27.558;2023-07-30T06:45:13;99384.97;;;25.97;50.13
78841;BME280;68379;47.190;27.558;2023-07-30T06:47:42;99389.08;;;26.05;50.25
78841;BME280;68379;47.190;27.558;2023-07-30T06:50:11;99389.54;;;26.13;50.01
78841;BME280;68379;47.190;27.558;2023-07-30T06:52:40;99392.17;;;26.27;49.61
78841;BME280;68379;47.190;27.558;2023-07-30T06:55:10;99396.02;;;26.41;49.52
78841;BME280;68379;47.190;27.558;2023-07-30T06:57:39;99397.22;;;26.56;49.48
78841;BME280;68379;47.190;27.558;2023-07-30T07:00:12;99402.11;;;26.75;49.10
78841;BME280;68379;47.190;27.558;2023-07-30T07:02:42;99401.26;;;26.94;49.23
78841;BME280;68379;47.190;27.558;2023-07-30T07:05:11;99399.44;;;27.16;48.51
78841;BME280;68379;47.190;27.558;2023-07-30T07:07:40;99401.45;;;27.28;47.73
78841;BME280;68379;47.190;27.558;2023-07-30T07:10:10;99391.52;;;27.37;47.97
78841;BME280;68379;47.190;27.558;2023-07-30T07:12:39;99386.99;;;27.50;47.91
78841;BME280;68379;47.190;27.558;2023-07-30T07:15:09;99386.19;;;27.63;48.11
78841;BME280;68379;47.190;27.558;2023-07-30T07:17:38;99390.48;;;27.77;46.38
78841;BME280;68379;47.190;27.558;2023-07-30T07:20:09;99386.13;;;28.00;46.68
78841;BME280;68379;47.190;27.558;2023-07-30T07:22:39;99385.08;;;28.13;46.07
78841;BME280;68379;47.190;27.558;2023-07-30T07:25:09;99380.35;;;28.17;45.45
78841;BME280;68379;47.190;27.558;2023-07-30T07:27:38;99375.55;;;28.13;43.19
78841;BME280;68379;47.190;27.558;2023-07-30T07:30:10;99377.02;;;28.12;44.52
78841;BME280;68379;47.190;27.558;2023-07-30T07:32:39;99378.67;;;28.06;45.12
78841;BME280;68379;47.190;27.558;2023-07-30T07:35:13;99382.88;;;28.09;44.74
78841;BME280;68379;47.190;27.558;2023-07-30T07:37:43;99382.36;;;28.09;44.50
78841;BME280;68379;47.190;27.558;2023-07-30T07:40:12;99376.39;;;28.21;44.34
78841;BME280;68379;47.190;27.558;2023-07-30T07:42:41;99371.13;;;28.36;44.45
78841;BME280;68379;47.190;27.558;2023-07-30T07:45:11;99364.84;;;28.52;44.58
78841;BME280;68379;47.190;27.558;2023-07-30T07:47:40;99364.31;;;28.68;44.47
78841;BME280;68379;47.190;27.558;2023-07-30T07:50:10;99361.32;;;28.91;44.18
78841;BME280;68379;47.190;27.558;2023-07-30T07:52:39;99360.77;;;29.04;43.50
78841;BME280;68379;47.190;27.558;2023-07-30T07:55:09;99359.76;;;29.11;42.24
78841;BME280;68379;47.190;27.558;2023-07-30T07:57:38;99362.16;;;29.19;42.19
78841;BME280;68379;47.190;27.558;2023-07-30T08:00:09;99362.14;;;29.21;42.02
78841;BME280;68379;47.190;27.558;2023-07-30T08:02:39;99365.68;;;29.26;41.11
78841;BME280;68379;47.190;27.558;2023-07-30T08:05:08;99361.77;;;29.34;41.02
78841;BME280;68379;47.190;27.558;2023-07-30T08:07:37;99359.52;;;29.47;39.36
78841;BME280;68379;47.190;27.558;2023-07-30T08:10:09;99354.43;;;29.63;39.12
78841;BME280;68379;47.190;27.558;2023-07-30T08:12:39;99351.33;;;29.79;40.28
78841;BME280;68379;47.190;27.558;2023-07-30T08:15:09;99350.84;;;29.81;40.33
78841;BME280;68379;47.190;27.558;2023-07-30T08:17:38;99346.67;;;29.87;39.66
78841;BME280;68379;47.190;27.558;2023-07-30T08:20:12;99344.45;;;30.02;38.63
78841;BME280;68379;47.190;27.558;2023-07-30T08:22:41;99342.99;;;30.15;38.79
78841;BME280;68379;47.190;27.558;2023-07-30T08:25:11;99343.27;;;30.29;38.14
78841;BME280;68379;47.190;27.558;2023-07-30T08:27:40;99343.48;;;30.34;37.83
78841;BME280;68379;47.190;27.558;2023-07-30T08:30:11;99345.40;;;30.38;37.95
78841;BME280;68379;47.190;27.558;2023-07-30T08:32:40;99340.73;;;30.48;36.91
78841;BME280;68379;47.190;27.558;2023-07-30T08:35:11;99344.40;;;30.65;37.06
78841;BME280;68379;47.190;27.558;2023-07-30T08:37:40;99334.55;;;30.79;36.47
78841;BME280;68379;47.190;27.558;2023-07-30T08:40:11;99330.84;;;30.96;36.17
78841;BME280;68379;47.190;27.558;2023-07-30T08:42:40;99327.95;;;31.09;36.14
78841;BME280;68379;47.190;27.558;2023-07-30T08:45:10;99327.08;;;31.17;35.73
78841;BME280;68379;47.190;27.558;2023-07-30T08:47:40;99324.80;;;31.31;35.83
78841;BME280;68379;47.190;27.558;2023-07-30T08:50:10;99330.58;;;31.36;33.86
78841;BME280;68379;47.190;27.558;2023-07-30T08:52:41;99335.55;;;31.43;34.69
78841;BME280;68379;47.190;27.558;2023-07-30T08:55:12;99334.23;;;31.44;35.02
78841;BME280;68379;47.190;27.558;2023-07-30T08:57:41;99336.58;;;31.39;35.17
78841;BME280;68379;47.190;27.558;2023-07-30T09:00:16;99334.29;;;31.37;34.02
78841;BME280;68379;47.190;27.558;2023-07-30T09:02:49;99331.83;;;31.41;33.83
78841;BME280;68379;47.190;27.558;2023-07-30T09:05:21;99329.92;;;31.38;33.81
78841;BME280;68379;47.190;27.558;2023-07-30T09:07:51;99330.27;;;31.39;33.68
78841;BME280;68379;47.190;27.558;2023-07-30T09:10:20;99326.61;;;31.41;33.29
78841;BME280;68379;47.190;27.558;2023-07-30T09:12:53;99326.20;;;31.54;33.45
78841;BME280;68379;47.190;27.558;2023-07-30T09:15:31;99323.77;;;31.69;33.22
78841;BME280;68379;47.190;27.558;2023-07-30T09:18:01;99322.45;;;31.69;32.99
78841;BME280;68379;47.190;27.558;2023-07-30T09:20:37;99324.11;;;31.77;31.98
78841;BME280;68379;47.190;27.558;2023-07-30T09:23:07;99324.88;;;31.94;32.43
78841;BME280;68379;47.190;27.558;2023-07-30T09:25:37;99318.45;;;31.91;32.96
78841;BME280;68379;47.190;27.558;2023-07-30T09:28:07;99316.81;;;31.91;32.57
78841;BME280;68379;47.190;27.558;2023-07-30T09:30:36;99313.95;;;31.85;32.95
78841;BME280;68379;47.190;27.558;2023-07-30T09:33:05;99311.00;;;31.76;32.84
78841;BME280;68379;47.190;27.558;2023-07-30T09:35:34;99313.88;;;31.78;32.59
78841;BME280;68379;47.190;27.558;2023-07-30T09:38:04;99315.88;;;31.86;32.70
78841;BME280;68379;47.190;27.558;2023-07-30T09:40:34;99318.71;;;31.88;32.99
78841;BME280;68379;47.190;27.558;2023-07-30T09:43:04;99316.44;;;31.82;32.58
78841;BME280;68379;47.190;27.558;2023-07-30T09:45:35;99305.30;;;31.87;33.03
78841;BME280;68379;47.190;27.558;2023-07-30T09:48:06;99302.90;;;32.10;32.53
78841;BME280;68379;47.190;27.558;2023-07-30T09:50:36;99300.48;;;32.28;32.66
78841;BME280;68379;47.190;27.558;2023-07-30T09:53:05;99302.06;;;32.32;32.23
78841;BME280;68379;47.190;27.558;2023-07-30T09:55:36;99297.80;;;32.07;31.60
78841;BME280;68379;47.190;27.558;2023-07-30T09:58:05;99295.44;;;32.10;31.07
78841;BME280;68379;47.190;27.558;2023-07-30T10:23:01;99267.26;;;33.53;27.40
78841;BME280;68379;47.190;27.558;2023-07-30T10:25:47;99261.27;;;33.79;27.13
78841;BME280;68379;47.190;27.558;2023-07-30T10:28:35;99261.71;;;33.86;26.90
78841;BME280;68379;47.190;27.558;2023-07-30T10:31:09;99261.58;;;33.91;26.31
78841;BME280;68379;47.190;27.558;2023-07-30T10:33:51;99263.43;;;33.87;27.47
78841;BME280;68379;47.190;27.558;2023-07-30T10:36:33;99259.45;;;33.70;27.86
78841;BME280;68379;47.190;27.558;2023-07-30T10:39:15;99255.28;;;33.46;27.69
78841;BME280;68379;47.190;27.558;2023-07-30T10:41:48;99250.70;;;33.42;27.60
78841;BME280;68379;47.190;27.558;2023-07-30T10:44:27;99244.02;;;33.39;27.71
78841;BME280;68379;47.190;27.558;2023-07-30T10:47:01;99244.23;;;33.62;27.98
78841;BME280;68379;47.190;27.558;2023-07-30T10:49:37;99246.46;;;33.61;27.79
78841;BME280;68379;47.190;27.558;2023-07-30T10:52:10;99239.46;;;33.59;27.18
78841;BME280;68379;47.190;27.558;2023-07-30T10:54:42;99234.48;;;33.63;26.92
78841;BME280;68379;47.190;27.558;2023-07-30T10:57:13;99236.45;;;33.63;26.81
78841;BME280;68379;47.190;27.558;2023-07-30T10:59:45;99240.17;;;33.60;27.38
78841;BME280;68379;47.190;27.558;2023-07-30T11:02:18;99234.55;;;33.52;27.59
78841;BME280;68379;47.190;27.558;2023-07-30T11:04:49;99234.81;;;33.51;27.72
78841;BME280;68379;47.190;27.558;2023-07-30T11:07:22;99233.88;;;33.53;27.39
78841;BME280;68379;47.190;27.558;2023-07-30T11:10:02;99232.55;;;33.60;27.14
78841;BME280;68379;47.190;27.558;2023-07-30T11:12:33;99230.08;;;33.77;27.17
78841;BME280;68379;47.190;27.558;2023-07-30T11:15:07;99227.42;;;34.02;27.28
78841;BME280;68379;47.190;27.558;2023-07-30T11:17:38;99226.48;;;33.95;26.68
78841;BME280;68379;47.190;27.558;2023-07-30T11:20:24;99219.19;;;33.89;27.32
78841;BME280;68379;47.190;27.558;2023-07-30T11:22:56;99217.21;;;34.05;27.17
78841;BME280;68379;47.190;27.558;2023-07-30T11:25:28;99212.84;;;34.29;27.15
78841;BME280;68379;47.190;27.558;2023-07-30T11:27:59;99210.02;;;34.55;27.10
78841;BME280;68379;47.190;27.558;2023-07-30T11:30:31;99203.73;;;34.88;26.86
78841;BME280;68379;47.190;27.558;2023-07-30T11:33:03;99203.13;;;35.13;26.33
78841;BME280;68379;47.190;27.558;2023-07-30T11:35:35;99200.41;;;35.09;25.94
78841;BME280;68379;47.190;27.558;2023-07-30T11:38:06;99199.89;;;34.98;26.11
78841;BME280;68379;47.190;27.558;2023-07-30T11:40:39;99199.63;;;35.08;26.66
78841;BME280;68379;47.190;27.558;2023-07-30T11:43:11;99191.86;;;35.20;26.08
78841;BME280;68379;47.190;27.558;2023-07-30T11:45:42;99182.52;;;35.11;25.51
78841;BME280;68379;47.190;27.558;2023-07-30T11:48:14;99177.39;;;34.82;25.63
78841;BME280;68379;47.190;27.558;2023-07-30T11:50:49;99178.05;;;34.88;25.81
78841;BME280;68379;47.190;27.558;2023-07-30T11:53:21;99179.69;;;34.96;25.35
78841;BME280;68379;47.190;27.558;2023-07-30T11:55:53;99176.85;;;35.20;25.69
78841;BME280;68379;47.190;27.558;2023-07-30T11:58:30;99171.19;;;35.54;25.06
78841;BME280;68379;47.190;27.558;2023-07-30T12:01:02;99167.16;;;35.82;24.74
78841;BME280;68379;47.190;27.558;2023-07-30T12:03:36;99168.11;;;36.10;24.24
78841;BME280;68379;47.190;27.558;2023-07-30T12:06:09;99168.95;;;36.48;24.19
78841;BME280;68379;47.190;27.558;2023-07-30T12:08:40;99170.58;;;36.63;23.22
78841;BME280;68379;47.190;27.558;2023-07-30T12:11:12;99173.29;;;36.61;23.18
78841;BME280;68379;47.190;27.558;2023-07-30T12:13:47;99170.60;;;36.77;23.22
78841;BME280;68379;47.190;27.558;2023-07-30T12:16:20;99169.71;;;36.73;23.22
78841;BME280;68379;47.190;27.558;2023-07-30T12:18:52;99165.80;;;36.57;24.04
78841;BME280;68379;47.190;27.558;2023-07-30T12:21:23;99164.40;;;36.39;24.37
78841;BME280;68379;47.190;27.558;2023-07-30T12:23:55;99162.24;;;36.15;24.33
78841;BME280;68379;47.190;27.558;2023-07-30T12:26:27;99158.64;;;36.04;24.23
78841;BME280;68379;47.190;27.558;2023-07-30T12:28:58;99152.97;;;35.94;24.07
78841;BME280;68379;47.190;27.558;2023-07-30T12:31:30;99148.28;;;35.74;24.36
78841;BME280;68379;47.190;27.558;2023-07-30T12:34:01;99147.45;;;35.47;24.70
78841;BME280;68379;47.190;27.558;2023-07-30T12:36:33;99147.20;;;35.30;25.24
78841;BME280;68379;47.190;27.558;2023-07-30T12:39:04;99147.09;;;35.23;25.35
78841;BME280;68379;47.190;27.558;2023-07-30T12:41:45;99143.79;;;35.23;25.16
78841;BME280;68379;47.190;27.558;2023-07-30T12:44:17;99145.83;;;35.21;25.20
78841;BME280;68379;47.190;27.558;2023-07-30T12:46:48;99142.94;;;35.18;26.06
78841;BME280;68379;47.190;27.558;2023-07-30T12:49:20;99140.98;;;35.24;25.87
78841;BME280;68379;47.190;27.558;2023-07-30T12:51:52;99144.72;;;35.33;26.43
78841;BME280;68379;47.190;27.558;2023-07-30T12:54:24;99140.23;;;35.50;26.06
78841;BME280;68379;47.190;27.558;2023-07-30T12:56:55;99139.25;;;35.60;25.49
78841;BME280;68379;47.190;27.558;2023-07-30T12:59:27;99136.84;;;35.52;25.29
78841;BME280;68379;47.190;27.558;2023-07-30T13:01:59;99138.55;;;35.42;25.34
78841;BME280;68379;47.190;27.558;2023-07-30T13:04:31;99135.40;;;35.77;25.56
78841;BME280;68379;47.190;27.558;2023-07-30T13:07:03;99134.03;;;36.36;24.11
78841;BME280;68379;47.190;27.558;2023-07-30T13:09:34;99131.32;;;36.92;23.16
78841;BME280;68379;47.190;27.558;2023-07-30T13:12:07;99131.86;;;37.47;22.14
78841;BME280;68379;47.190;27.558;2023-07-30T13:14:44;99127.95;;;37.66;22.26
78841;BME280;68379;47.190;27.558;2023-07-30T13:17:16;99124.92;;;37.42;22.89
78841;BME280;68379;47.190;27.558;2023-07-30T13:20:01;99116.67;;;36.95;22.42
78841;BME280;68379;47.190;27.558;2023-07-30T13:22:33;99117.70;;;36.53;23.60
78841;BME280;68379;47.190;27.558;2023-07-30T13:25:06;99115.02;;;36.33;23.65
78841;BME280;68379;47.190;27.558;2023-07-30T13:27:38;99112.85;;;36.11;24.12
78841;BME280;68379;47.190;27.558;2023-07-30T13:30:10;99112.22;;;35.72;24.70
78841;BME280;68379;47.190;27.558;2023-07-30T13:32:42;99112.34;;;35.38;24.73
78841;BME280;68379;47.190;27.558;2023-07-30T13:35:14;99110.66;;;35.25;24.79
78841;BME280;68379;47.190;27.558;2023-07-30T13:37:45;99106.83;;;35.01;25.83
78841;BME280;68379;47.190;27.558;2023-07-30T13:40:17;99111.04;;;34.70;26.54
78841;BME280;68379;47.190;27.558;2023-07-30T13:42:49;99111.70;;;34.44;26.48
78841;BME280;68379;47.190;27.558;2023-07-30T13:45:21;99110.79;;;34.31;25.93
78841;BME280;68379;47.190;27.558;2023-07-30T13:47:53;99106.71;;;34.11;26.17
78841;BME280;68379;47.190;27.558;2023-07-30T13:50:24;99106.98;;;33.90;26.58
78841;BME280;68379;47.190;27.558;2023-07-30T13:52:56;99102.33;;;33.76;26.95
78841;BME280;68379;47.190;27.558;2023-07-30T13:55:28;99104.52;;;33.46;27.03
78841;BME280;68379;47.190;27.558;2023-07-30T13:57:59;99102.77;;;33.12;27.46
78841;BME280;68379;47.190;27.558;2023-07-30T14:00:31;99100.33;;;32.96;27.88
78841;BME280;68379;47.190;27.558;2023-07-30T14:03:03;99097.94;;;32.84;29.21
78841;BME280;68379;47.190;27.558;2023-07-30T14:05:34;99095.98;;;32.79;28.89
78841;BME280;68379;47.190;27.558;2023-07-30T14:08:06;99093.55;;;32.72;29.91
78841;BME280;68379;47.190;27.558;2023-07-30T14:10:38;99093.10;;;32.64;30.22
78841;BME280;68379;47.190;27.558;2023-07-30T14:13:09;99093.41;;;32.53;29.54
78841;BME280;68379;47.190;27.558;2023-07-30T14:15:41;99094.98;;;32.35;29.72
78841;BME280;68379;47.190;27.558;2023-07-30T14:18:13;99099.22;;;32.17;30.50
78841;BME280;68379;47.190;27.558;2023-07-30T14:20:45;99110.39;;;31.98;30.70
78841;BME280;68379;47.190;27.558;2023-07-30T14:23:16;99114.63;;;31.75;32.47
78841;BME280;68379;47.190;27.558;2023-07-30T14:25:48;99136.05;;;31.38;33.81
78841;BME280;68379;47.190;27.558;2023-07-30T14:28:20;99149.16;;;30.53;37.53
78841;BME280;68379;47.190;27.558;2023-07-30T14:30:51;99154.41;;;29.70;40.30
78841;BME280;68379;47.190;27.558;2023-07-30T14:33:23;99151.23;;;29.14;42.73
78841;BME280;68379;47.190;27.558;2023-07-30T14:35:56;99141.58;;;28.36;46.72